Shubuta, MS (39360)

11:11 AM CST on January 25, 2015 (GMT -0600)
Clarke Co. Airport (23M) | Change Station
CLOSE
Current Station
Personal Weather Station
Location: Quitman, MS
Elevation: 320 ft
Nearby Weather Stations

Elev 320 ft 32.08 °N, 88.74 °W | Updated 2 minutes ago

Clear
Clear
57.2 °F
Feels Like 57.2 °F
N
7.0
Wind Variable Wind from SW
Gusts 8.0 mph

Today
High -- | Low -- °F
--% Chance of Precip.
Yesterday
High -- | Low -- °F
Precip. -- in
6:52 AM 5:22 PM
Waxing Crescent, 34% visible
Pressure 29.89 in
Visibility 10.0 miles
Clouds Clear
Dew Point 42 °F
Humidity 57%
Rainfall 0.00 in
Snow Depth Not available.
UV 4 out of 12
Pollen 4.80 out of 12
Air Quality Not available.
Flu Activity Not available.
METAR KMEI 251658Z 23011KT 10SM CLR 13/03 A2989 RMK AO2 SLP121 T01330028

More Conditions Fewer Conditions

Pressure 29.89 in
Visibility 10.0 miles
Clouds Clear
Dew Point 42 °F
Humidity 57%
Rainfall 0.00 in
Snow Depth Not available.
UV 4 out of 12
Pollen 4.80 out of 12
Air Quality Not available.
Flu Activity Not available.
METAR KMEI 251658Z 23011KT 10SM CLR 13/03 A2989 RMK AO2 SLP121 T01330028

More Conditions Fewer Conditions

10-Day Weather Forecast

Almanac

Astronomy

Jan. 25, 2015 Rise Set
Actual Time
Civil Twilight
Nautical Twilight
Astronomical Twilight
Moon
Length of Visible Light
Length of Day
Tomorrow will be .
, % of the Moon is Illuminated

Today's Extremes

State Highs State Lows

Community

WunderPhotos

Upload Photos

1,789,987 photos uploaded!

WunderBlogs® & News

Nearby

Air Quality

  Air Quality AQ Index Pollutant
Not available.

Snow Depth

Station Depth Elevation

Earthquake Activity

City Distance Mag. Time & Date
Minimum magnitude displayed is 2.5.

Coastal Water Temperatures

Place Temperature

Nearby Weather Stations